createdAt,value
2023-05-10T00:01:48.107Z,6.15
2023-05-10T00:04:28.109Z,5.78
2023-05-10T00:07:09.335Z,5.55
2023-05-10T00:09:36.025Z,6.03
2023-05-10T00:12:03.028Z,5.80
2023-05-10T00:14:31.867Z,5.55
2023-05-10T00:16:58.657Z,5.90
2023-05-10T00:19:25.398Z,5.50
2023-05-10T00:21:53.273Z,6.00
2023-05-10T00:24:20.248Z,6.15
2023-05-10T00:26:54.619Z,5.40
2023-05-10T00:29:21.269Z,5.47
2023-05-10T00:31:51.341Z,6.00
2023-05-10T00:34:18.256Z,6.40
2023-05-10T00:36:47.151Z,5.85
2023-05-10T00:39:16.993Z,5.95
2023-05-10T00:42:00.691Z,5.68
2023-05-10T00:44:29.935Z,5.75
2023-05-10T00:46:56.639Z,5.63
2023-05-10T00:49:25.215Z,5.43
2023-05-10T00:52:09.150Z,6.07
2023-05-10T00:54:39.119Z,6.22
2023-05-10T00:57:05.839Z,6.10
2023-05-10T00:59:33.285Z,6.15
2023-05-10T01:02:00.171Z,6.30
2023-05-10T01:04:26.988Z,6.07
2023-05-10T01:06:54.769Z,6.28
2023-05-10T01:09:36.099Z,6.25
2023-05-10T01:12:04.251Z,5.95
2023-05-10T01:14:44.410Z,6.65
2023-05-10T01:17:23.833Z,6.30
2023-05-10T01:19:53.071Z,6.40
2023-05-10T01:22:41.732Z,6.65
2023-05-10T01:25:26.640Z,6.75
2023-05-10T01:27:59.100Z,6.55
2023-05-10T01:30:42.359Z,6.53
2023-05-10T01:33:17.235Z,6.53
2023-05-10T01:36:12.971Z,6.95
2023-05-10T01:38:48.521Z,6.82
2023-05-10T01:41:25.081Z,6.43
2023-05-10T01:44:19.301Z,6.70
2023-05-10T01:46:54.116Z,6.38
2023-05-10T01:49:44.816Z,6.70
2023-05-10T01:52:21.975Z,7.13
2023-05-10T01:55:02.276Z,6.82
2023-05-10T01:57:35.120Z,6.63
2023-05-10T02:00:08.391Z,6.50
2023-05-10T02:02:43.430Z,6.97
2023-05-10T02:05:16.721Z,7.32
2023-05-10T02:08:07.319Z,7.25
2023-05-10T02:10:40.719Z,6.97
2023-05-10T02:13:09.403Z,6.95
2023-05-10T02:15:38.157Z,7.32
2023-05-10T02:18:07.125Z,7.05
2023-05-10T02:20:36.121Z,6.65
2023-05-10T02:23:04.445Z,7.10
2023-05-10T02:25:32.655Z,6.60
2023-05-10T02:28:11.801Z,7.00
2023-05-10T02:31:25.858Z,6.40
2023-05-10T02:33:58.295Z,7.10
2023-05-10T02:36:28.816Z,6.75
2023-05-10T02:39:02.814Z,7.40
2023-05-10T02:41:33.492Z,6.82
2023-05-10T02:44:03.806Z,7.05
2023-05-10T02:46:42.588Z,7.25
2023-05-10T02:49:09.568Z,7.38
2023-05-10T02:51:42.107Z,7.88
2023-05-10T02:54:13.765Z,7.32
2023-05-10T02:56:48.673Z,7.20
2023-05-10T02:59:15.582Z,7.20
2023-05-10T03:01:44.720Z,7.47
2023-05-10T03:04:11.837Z,7.28
2023-05-10T03:06:38.998Z,7.13
2023-05-10T03:09:13.325Z,7.82
2023-05-10T03:12:10.183Z,7.07
2023-05-10T03:14:48.995Z,7.70
2023-05-10T03:17:40.031Z,7.70
2023-05-10T03:20:17.556Z,6.82
2023-05-10T03:22:48.166Z,7.05
2023-05-10T03:25:17.677Z,7.68
2023-05-10T03:27:46.209Z,7.47
2023-05-10T03:30:14.077Z,7.78
2023-05-10T03:32:40.945Z,7.60
2023-05-10T03:35:09.650Z,7.57
2023-05-10T03:37:36.954Z,6.97
2023-05-10T03:40:04.675Z,7.32
2023-05-10T03:42:31.589Z,6.93
2023-05-10T03:44:58.255Z,6.25
2023-05-10T03:47:24.969Z,7.50
2023-05-10T03:49:51.657Z,7.47
2023-05-10T03:52:18.256Z,6.85
2023-05-10T03:54:44.918Z,7.15
2023-05-10T03:57:11.544Z,7.57
2023-05-10T03:59:38.178Z,7.55
2023-05-10T04:02:04.830Z,6.85
2023-05-10T04:04:31.463Z,7.20
2023-05-10T04:06:58.121Z,6.35
2023-05-10T04:09:25.081Z,7.20
2023-05-10T04:11:51.705Z,6.35
2023-05-10T04:14:18.456Z,6.60
2023-05-10T04:16:45.062Z,6.28
2023-05-10T04:19:11.987Z,7.10
2023-05-10T04:21:38.580Z,7.30
2023-05-10T04:24:05.354Z,6.95
2023-05-10T04:26:32.358Z,6.13
2023-05-10T04:28:58.962Z,6.45
2023-05-10T04:31:25.718Z,6.47
2023-05-10T04:33:52.527Z,6.93
2023-05-10T04:36:19.272Z,6.32
2023-05-10T04:38:45.881Z,7.00
2023-05-10T04:41:12.741Z,6.13
2023-05-10T04:43:39.741Z,6.63
2023-05-10T04:46:07.015Z,6.28
2023-05-10T04:48:33.812Z,5.95
2023-05-10T04:51:00.732Z,5.85
2023-05-10T04:53:27.376Z,6.25
2023-05-10T04:55:54.043Z,5.82
2023-05-10T04:58:20.673Z,5.53
2023-05-10T05:00:47.281Z,5.80
2023-05-10T05:03:14.113Z,6.15
2023-05-10T05:05:40.764Z,6.00
2023-05-10T05:08:07.347Z,5.55
2023-05-10T05:10:33.985Z,5.20
2023-05-10T05:13:00.812Z,5.68
2023-05-10T05:15:27.515Z,5.82
2023-05-10T05:17:54.714Z,5.65
2023-05-10T05:20:21.495Z,5.03
2023-05-10T05:22:48.122Z,5.60
2023-05-10T05:25:16.077Z,5.30
2023-05-10T05:27:42.781Z,4.75
2023-05-10T05:30:09.846Z,5.03
2023-05-10T05:32:36.525Z,4.50
2023-05-10T05:35:03.376Z,4.50
2023-05-10T05:37:30.126Z,4.95
2023-05-10T05:39:56.807Z,5.25
2023-05-10T05:42:23.636Z,4.30
2023-05-10T05:44:50.335Z,4.45
2023-05-10T05:47:17.018Z,4.50
2023-05-10T05:49:43.705Z,4.25
2023-05-10T05:52:10.266Z,4.30
2023-05-10T05:54:36.877Z,4.50
2023-05-10T05:57:03.708Z,4.13
2023-05-10T05:59:30.540Z,3.90
2023-05-10T06:01:57.111Z,3.72
2023-05-10T06:04:23.935Z,4.07
2023-05-10T06:06:50.577Z,4.32
2023-05-10T06:09:17.215Z,4.00
2023-05-10T06:11:43.998Z,4.53
2023-05-10T06:14:10.742Z,3.90
2023-05-10T06:16:37.530Z,4.05
2023-05-10T06:19:04.138Z,3.50
2023-05-10T06:21:31.201Z,3.22
2023-05-10T06:23:57.961Z,4.70
2023-05-10T06:26:24.627Z,4.50
2023-05-10T06:28:51.269Z,3.42
2023-05-10T06:31:18.196Z,3.85
2023-05-10T06:33:44.785Z,3.60
2023-05-10T06:36:11.393Z,5.38
2023-05-10T06:38:38.287Z,4.40
2023-05-10T06:41:04.901Z,3.25
2023-05-10T06:43:31.496Z,3.40
2023-05-10T06:45:58.578Z,3.80
2023-05-10T06:48:25.318Z,3.20
2023-05-10T06:50:51.988Z,3.13
2023-05-10T06:53:18.811Z,3.40
2023-05-10T06:55:45.405Z,2.92
2023-05-10T06:58:12.138Z,3.70
2023-05-10T07:00:41.695Z,3.05
2023-05-10T07:03:08.538Z,3.28
2023-05-10T07:05:35.600Z,3.25
2023-05-10T07:08:02.628Z,3.03
2023-05-10T07:10:29.387Z,2.90
2023-05-10T07:12:56.061Z,3.05
2023-05-10T07:15:22.992Z,2.90
2023-05-10T07:17:49.750Z,2.85
2023-05-10T07:20:16.666Z,2.95
2023-05-10T07:22:43.337Z,3.17
2023-05-10T07:25:10.165Z,2.67
2023-05-10T07:27:36.917Z,3.08
2023-05-10T07:30:03.696Z,3.10
2023-05-10T07:32:30.366Z,2.70
2023-05-10T07:34:57.067Z,2.60
2023-05-10T07:37:23.725Z,2.70
2023-05-10T07:39:50.321Z,2.78
2023-05-10T07:42:16.937Z,3.10
2023-05-10T07:44:44.316Z,3.00
2023-05-10T07:47:10.897Z,2.67
2023-05-10T07:49:37.498Z,3.53
2023-05-10T07:52:04.578Z,3.10
2023-05-10T07:54:31.168Z,2.65
2023-05-10T07:56:57.728Z,2.92
2023-05-10T07:59:24.346Z,2.72
2023-05-10T08:01:50.937Z,2.88
2023-05-10T08:04:17.641Z,3.30
2023-05-10T08:06:44.307Z,2.88
2023-05-10T08:09:11.911Z,2.30
2023-05-10T08:11:38.505Z,3.13
2023-05-10T08:14:05.213Z,2.70
2023-05-10T08:16:31.962Z,2.83
2023-05-10T08:18:58.613Z,2.72
2023-05-10T08:21:25.280Z,3.05
2023-05-10T08:23:51.964Z,2.50
2023-05-10T08:26:18.539Z,3.00
2023-05-10T08:28:45.229Z,2.60
2023-05-10T08:31:13.088Z,2.83
2023-05-10T08:33:41.438Z,2.80
2023-05-10T08:36:09.087Z,4.68
2023-05-10T08:38:35.789Z,3.10
2023-05-10T08:41:03.617Z,3.00
2023-05-10T08:43:31.408Z,2.60
2023-05-10T08:46:03.969Z,2.85
2023-05-10T08:48:31.872Z,3.05
2023-05-10T08:51:00.996Z,2.80
2023-05-10T08:53:30.049Z,2.67
2023-05-10T08:55:56.858Z,2.97
2023-05-10T08:58:23.664Z,2.60
2023-05-10T09:00:53.599Z,2.83
2023-05-10T09:03:20.375Z,3.10
2023-05-10T09:05:47.496Z,3.33
2023-05-10T09:08:17.308Z,3.20
2023-05-10T09:10:45.716Z,3.03
2023-05-10T09:13:12.939Z,2.72
2023-05-10T09:15:40.095Z,2.78
2023-05-10T09:18:06.932Z,3.00
2023-05-10T09:20:33.774Z,3.10
2023-05-10T09:23:00.570Z,3.67
2023-05-10T09:25:27.248Z,3.40
2023-05-10T09:27:54.102Z,3.25
2023-05-10T09:30:29.305Z,2.88
2023-05-10T09:32:57.025Z,2.60
2023-05-10T09:35:28.813Z,2.80
2023-05-10T09:37:58.507Z,2.80
2023-05-10T09:40:26.890Z,2.38
2023-05-10T09:43:03.491Z,2.50
2023-05-10T09:45:31.941Z,2.38
2023-05-10T09:48:00.165Z,2.70
2023-05-10T09:50:27.786Z,2.90
2023-05-10T09:53:00.149Z,3.17
2023-05-10T09:55:39.465Z,3.92
2023-05-10T09:58:11.118Z,3.42
2023-05-10T10:03:05.651Z,3.45
2023-05-10T10:05:36.663Z,3.08
2023-05-10T10:08:06.595Z,3.40
2023-05-10T10:10:34.677Z,3.20
2023-05-10T10:13:02.732Z,2.53
2023-05-10T10:15:29.374Z,2.45
2023-05-10T10:17:55.994Z,2.42
2023-05-10T10:20:23.927Z,2.70
2023-05-10T10:22:50.779Z,2.85
2023-05-10T10:25:19.359Z,2.40
2023-05-10T10:27:58.060Z,2.45
2023-05-10T10:30:52.345Z,3.22
2023-05-10T10:33:58.135Z,3.28
2023-05-10T10:36:24.875Z,5.00
2023-05-10T10:39:03.855Z,2.40
2023-05-10T10:41:37.889Z,2.50
2023-05-10T10:44:26.109Z,2.40
2023-05-10T10:47:25.642Z,2.28
2023-05-10T10:50:04.550Z,2.33
2023-05-10T10:52:36.361Z,2.20
2023-05-10T10:55:11.494Z,2.30
2023-05-10T10:57:41.160Z,5.85
2023-05-10T11:00:21.060Z,2.72
2023-05-10T11:02:52.811Z,2.10
2023-05-10T11:05:28.473Z,2.55
2023-05-10T11:08:00.808Z,2.50
2023-05-10T11:10:30.975Z,2.10
2023-05-10T11:13:10.954Z,2.28
2023-05-10T11:15:49.957Z,2.47
2023-05-10T11:18:21.950Z,2.08
2023-05-10T11:21:14.434Z,3.22
2023-05-10T11:23:54.289Z,2.03
2023-05-10T11:26:24.770Z,2.45
2023-05-10T11:28:58.275Z,2.03
2023-05-10T11:31:27.806Z,2.50
2023-05-10T11:33:59.924Z,1.80
2023-05-10T11:36:29.442Z,2.20
2023-05-10T11:38:59.734Z,2.30
2023-05-10T11:41:30.748Z,2.20
2023-05-10T11:43:59.242Z,2.20
2023-05-10T11:46:30.162Z,2.20
2023-05-10T11:49:03.048Z,2.08
2023-05-10T11:51:35.892Z,2.05
2023-05-10T11:54:07.446Z,2.10
2023-05-10T11:59:02.839Z,5.38
2023-05-10T12:01:29.975Z,3.33
2023-05-10T12:04:00.649Z,2.10
2023-05-10T12:06:29.979Z,3.70
2023-05-10T12:08:59.453Z,2.25
2023-05-10T12:11:28.316Z,2.15
2023-05-10T12:14:03.967Z,1.58
2023-05-10T12:16:31.237Z,2.00
2023-05-10T12:18:59.428Z,2.38
2023-05-10T12:21:26.845Z,2.17
2023-05-10T12:23:56.607Z,2.13
2023-05-10T12:26:24.241Z,1.92
2023-05-10T12:28:52.270Z,1.95
2023-05-10T12:31:19.628Z,2.25
2023-05-10T12:33:50.552Z,2.25
2023-05-10T12:39:07.399Z,2.00
2023-05-10T12:41:43.610Z,2.58
2023-05-10T12:44:10.517Z,2.20
2023-05-10T12:46:37.826Z,2.28
2023-05-10T12:49:09.360Z,2.10
2023-05-10T12:51:36.461Z,1.80
2023-05-10T12:54:04.265Z,2.58
2023-05-10T12:56:31.096Z,2.67
2023-05-10T12:58:57.699Z,3.30
2023-05-10T13:01:34.801Z,2.17
2023-05-10T13:04:01.627Z,3.78
2023-05-10T13:06:28.317Z,4.47
2023-05-10T13:08:54.960Z,2.30
2023-05-10T13:11:22.762Z,2.28
2023-05-10T13:13:50.720Z,2.08
2023-05-10T13:16:17.538Z,2.28
2023-05-10T13:18:44.384Z,2.00
2023-05-10T13:23:58.007Z,1.92
2023-05-10T13:26:25.148Z,2.15
2023-05-10T13:28:52.886Z,1.88
2023-05-10T13:31:20.014Z,2.35
2023-05-10T13:33:54.452Z,2.40
2023-05-10T13:36:21.587Z,2.40
2023-05-10T13:38:48.334Z,2.08
2023-05-10T13:41:15.265Z,1.98
2023-05-10T13:43:42.001Z,2.00
2023-05-10T13:46:08.835Z,2.22
2023-05-10T13:48:38.140Z,2.22
2023-05-10T13:51:05.530Z,2.42
2023-05-10T13:53:32.246Z,2.58
2023-05-10T13:55:59.150Z,2.50
2023-05-10T13:58:25.769Z,2.20
2023-05-10T14:00:52.429Z,2.50
2023-05-10T14:03:19.130Z,2.30
2023-05-10T14:05:46.392Z,2.33
2023-05-10T14:08:14.243Z,3.08
2023-05-10T14:10:40.969Z,2.30
2023-05-10T14:13:07.671Z,2.42
2023-05-10T14:15:34.302Z,2.42
2023-05-10T14:18:01.546Z,2.50
2023-05-10T14:20:28.261Z,2.53
2023-05-10T14:22:54.826Z,2.60
2023-05-10T14:25:21.783Z,2.75
2023-05-10T14:27:48.857Z,2.53
2023-05-10T14:30:16.127Z,2.40
2023-05-10T14:32:43.045Z,2.63
2023-05-10T14:35:12.818Z,2.47
2023-05-10T14:37:40.196Z,2.42
2023-05-10T14:40:08.495Z,2.40
2023-05-10T14:42:42.712Z,2.03
2023-05-10T14:45:10.120Z,2.22
2023-05-10T14:47:42.983Z,2.25
2023-05-10T14:50:21.477Z,2.47
2023-05-10T14:53:00.602Z,2.03
2023-05-10T14:55:27.642Z,2.67
2023-05-10T14:58:05.870Z,2.53
2023-05-10T15:00:32.504Z,2.80
2023-05-10T15:03:10.421Z,2.42
2023-05-10T15:05:42.427Z,2.70
2023-05-10T15:08:10.645Z,2.42
2023-05-10T15:10:37.970Z,2.80
2023-05-10T15:13:05.375Z,2.30
2023-05-10T15:15:32.458Z,2.60
2023-05-10T15:17:59.316Z,2.10
2023-05-10T15:20:26.036Z,2.20
2023-05-10T15:22:52.798Z,2.83
2023-05-10T15:25:19.661Z,2.38
2023-05-10T15:27:46.468Z,2.33
2023-05-10T15:30:13.483Z,2.40
2023-05-10T15:32:41.226Z,2.60
2023-05-10T15:35:10.558Z,2.63
2023-05-10T15:37:42.468Z,2.78
2023-05-10T15:40:09.571Z,3.00
2023-05-10T15:42:36.765Z,2.45
2023-05-10T15:45:03.834Z,2.65
2023-05-10T15:47:31.561Z,2.90
2023-05-10T15:49:58.446Z,3.33
2023-05-10T15:52:25.221Z,3.47
2023-05-10T15:54:52.425Z,3.13
2023-05-10T15:57:42.724Z,3.20
2023-05-10T16:00:13.398Z,3.17
2023-05-10T16:02:41.484Z,3.78
2023-05-10T16:05:09.789Z,3.40
2023-05-10T16:07:36.954Z,3.20
2023-05-10T16:10:11.300Z,4.13
2023-05-10T16:12:38.536Z,3.95
2023-05-10T16:15:06.846Z,3.90
2023-05-10T16:17:33.727Z,4.03
2023-05-10T16:20:01.437Z,3.63
2023-05-10T16:22:29.225Z,4.03
2023-05-10T16:24:57.433Z,3.75
2023-05-10T16:27:24.471Z,4.00
2023-05-10T16:29:51.250Z,3.67
2023-05-10T16:32:18.193Z,3.90
2023-05-10T16:34:45.095Z,3.65
2023-05-10T16:37:11.978Z,3.38
2023-05-10T16:39:39.009Z,3.72
2023-05-10T16:42:06.353Z,3.83
2023-05-10T16:44:33.883Z,3.97
2023-05-10T16:47:00.818Z,3.78
2023-05-10T16:49:27.506Z,3.72
2023-05-10T16:51:54.777Z,3.80
2023-05-10T16:54:22.131Z,3.53
2023-05-10T16:56:49.052Z,4.00
2023-05-10T16:59:16.492Z,4.07
2023-05-10T17:01:43.641Z,3.60
2023-05-10T17:04:10.448Z,3.67
2023-05-10T17:06:37.765Z,3.45
2023-05-10T17:09:06.217Z,4.07
2023-05-10T17:11:34.423Z,4.13
2023-05-10T17:14:01.860Z,3.80
2023-05-10T17:16:29.904Z,4.00
2023-05-10T17:18:56.830Z,3.80
2023-05-10T17:21:23.974Z,3.90
2023-05-10T17:23:51.432Z,4.15
2023-05-10T17:26:18.322Z,3.63
2023-05-10T17:28:45.084Z,3.72
2023-05-10T17:31:12.249Z,4.38
2023-05-10T17:33:39.427Z,4.72
2023-05-10T17:36:06.533Z,4.40
2023-05-10T17:38:33.476Z,4.95
2023-05-10T17:41:00.460Z,4.50
2023-05-10T17:43:27.093Z,5.20
2023-05-10T17:45:53.821Z,4.80
2023-05-10T17:48:20.898Z,5.03
2023-05-10T17:50:50.573Z,4.82
2023-05-10T17:53:17.450Z,4.60
2023-05-10T17:55:44.184Z,5.05
2023-05-10T17:58:12.432Z,5.35
2023-05-10T18:00:39.657Z,4.97
2023-05-10T18:03:06.307Z,5.00
2023-05-10T18:05:37.506Z,5.10
2023-05-10T18:08:05.231Z,5.38
2023-05-10T18:10:32.334Z,5.00
2023-05-10T18:12:59.428Z,5.40
2023-05-10T18:15:27.872Z,5.25
2023-05-10T18:17:56.256Z,5.10
2023-05-10T18:20:23.464Z,5.53
2023-05-10T18:22:50.420Z,4.55
2023-05-10T18:25:17.524Z,5.60
2023-05-10T18:27:44.472Z,4.80
2023-05-10T18:30:12.632Z,5.50
2023-05-10T18:32:39.909Z,4.82
2023-05-10T18:35:08.683Z,5.25
2023-05-10T18:37:36.448Z,5.10
2023-05-10T18:40:05.121Z,5.60
2023-05-10T18:42:32.020Z,5.60
2023-05-10T18:44:58.752Z,5.50
2023-05-10T18:47:26.788Z,5.82
2023-05-10T18:49:53.629Z,4.63
2023-05-10T18:52:20.461Z,4.80
2023-05-10T18:54:47.161Z,5.53
2023-05-10T18:57:13.952Z,5.13
2023-05-10T18:59:41.068Z,4.95
2023-05-10T19:02:08.395Z,5.50
2023-05-10T19:04:35.216Z,5.55
2023-05-10T19:07:03.164Z,5.40
2023-05-10T19:09:29.858Z,5.70
2023-05-10T19:11:56.909Z,5.05
2023-05-10T19:14:25.458Z,5.85
2023-05-10T19:16:53.135Z,5.13
2023-05-10T19:19:20.594Z,5.57
2023-05-10T19:21:48.369Z,5.50
2023-05-10T19:24:15.150Z,5.70
2023-05-10T19:26:41.995Z,5.57
2023-05-10T19:29:09.480Z,6.65
2023-05-10T19:31:36.173Z,6.95
2023-05-10T19:34:04.203Z,6.35
2023-05-10T19:36:33.316Z,6.43
2023-05-10T19:39:00.122Z,6.95
2023-05-10T19:41:26.962Z,6.03
2023-05-10T19:43:54.009Z,6.20
2023-05-10T19:46:20.774Z,6.10
2023-05-10T19:48:48.686Z,6.07
2023-05-10T19:51:16.787Z,6.40
2023-05-10T19:53:45.113Z,5.53
2023-05-10T19:56:13.170Z,6.25
2023-05-10T19:58:40.013Z,5.90
2023-05-10T20:01:07.965Z,6.35
2023-05-10T20:03:36.013Z,6.18
2023-05-10T20:06:04.088Z,6.05
2023-05-10T20:08:31.527Z,5.88
2023-05-10T20:10:59.185Z,6.35
2023-05-10T20:13:26.331Z,6.63
2023-05-10T20:15:57.934Z,5.93
2023-05-10T20:18:24.956Z,6.38
2023-05-10T20:20:56.320Z,6.68
2023-05-10T20:23:23.426Z,5.68
2023-05-10T20:25:50.344Z,5.75
2023-05-10T20:28:23.074Z,6.50
2023-05-10T20:30:53.435Z,5.95
2023-05-10T20:33:20.835Z,6.43
2023-05-10T20:35:47.581Z,6.40
2023-05-10T20:38:14.445Z,5.95
2023-05-10T20:40:41.691Z,6.13
2023-05-10T20:43:08.441Z,6.70
2023-05-10T20:45:37.577Z,6.70
2023-05-10T20:48:05.260Z,6.25
2023-05-10T20:50:32.178Z,5.50
2023-05-10T20:53:00.662Z,5.43
2023-05-10T20:55:28.251Z,5.85
2023-05-10T20:57:55.152Z,6.07
2023-05-10T21:00:22.042Z,5.95
2023-05-10T21:02:48.900Z,5.63
2023-05-10T21:05:16.804Z,5.57
2023-05-10T21:07:43.459Z,5.60
2023-05-10T21:10:11.718Z,5.72
2023-05-10T21:12:38.768Z,5.32
2023-05-10T21:15:05.929Z,5.80
2023-05-10T21:17:33.333Z,5.65
2023-05-10T21:20:00.092Z,5.60
2023-05-10T21:22:26.924Z,5.63
2023-05-10T21:24:53.762Z,5.40
2023-05-10T21:27:20.624Z,5.60
2023-05-10T21:29:47.209Z,5.18
2023-05-10T21:32:14.985Z,4.97
2023-05-10T21:34:41.873Z,5.22
2023-05-10T21:37:08.509Z,4.68
2023-05-10T21:39:35.130Z,5.00
2023-05-10T21:42:01.791Z,5.03
2023-05-10T21:44:28.408Z,5.13
2023-05-10T21:46:56.087Z,4.65
2023-05-10T21:49:22.704Z,4.80
2023-05-10T21:51:49.389Z,5.53
2023-05-10T21:54:15.993Z,5.05
2023-05-10T21:56:42.592Z,4.90
2023-05-10T21:59:09.221Z,5.30
2023-05-10T22:01:35.926Z,4.85
2023-05-10T22:04:02.544Z,5.00
2023-05-10T22:06:29.157Z,5.03
2023-05-10T22:08:55.822Z,5.18
2023-05-10T22:11:23.248Z,4.93
2023-05-10T22:13:49.865Z,5.20
2023-05-10T22:16:16.485Z,4.93
2023-05-10T22:18:43.751Z,5.20
2023-05-10T22:21:10.583Z,5.18
2023-05-10T22:23:37.206Z,4.75
2023-05-10T22:26:04.347Z,4.90
2023-05-10T22:28:31.003Z,5.20
2023-05-10T22:30:57.610Z,5.43
2023-05-10T22:33:24.292Z,4.95
2023-05-10T22:35:50.907Z,5.32
2023-05-10T22:38:17.583Z,4.90
2023-05-10T22:40:44.188Z,5.00
2023-05-10T22:43:10.947Z,4.68
2023-05-10T22:45:37.634Z,4.35
2023-05-10T22:48:05.330Z,5.00
2023-05-10T22:50:32.047Z,4.60
2023-05-10T22:52:58.628Z,4.80
2023-05-10T22:55:25.296Z,4.78
2023-05-10T22:57:52.401Z,5.13
2023-05-10T23:00:19.688Z,5.28
2023-05-10T23:02:46.724Z,4.85
2023-05-10T23:05:13.757Z,5.20
2023-05-10T23:07:40.599Z,5.35
2023-05-10T23:10:07.730Z,5.68
2023-05-10T23:12:34.716Z,5.65
2023-05-10T23:15:01.401Z,5.38
2023-05-10T23:17:28.379Z,5.03
2023-05-10T23:19:55.036Z,5.63
2023-05-10T23:22:21.872Z,5.50
2023-05-10T23:24:48.450Z,5.80
2023-05-10T23:27:15.102Z,6.38
2023-05-10T23:29:41.742Z,6.28
2023-05-10T23:32:08.399Z,5.85
2023-05-10T23:34:35.048Z,5.47
2023-05-10T23:37:02.062Z,6.28
2023-05-10T23:39:28.667Z,5.22
2023-05-10T23:41:55.572Z,6.30
2023-05-10T23:44:22.171Z,6.40
2023-05-10T23:46:48.765Z,6.05
2023-05-10T23:49:15.378Z,5.55
2023-05-10T23:51:41.971Z,5.93
2023-05-10T23:54:08.766Z,6.50
2023-05-10T23:56:35.336Z,6.13
2023-05-10T23:59:01.954Z,5.53
